createdAt,value
2018-10-18T00:00:40.231Z,101340.37
2018-10-18T00:03:10.716Z,101340.43
2018-10-18T00:05:40.221Z,101337.86
2018-10-18T00:08:10.067Z,101345.75
2018-10-18T00:10:39.790Z,101339.23
2018-10-18T00:13:09.038Z,101336.14
2018-10-18T00:15:39.471Z,101351.52
2018-10-18T00:18:09.023Z,101348.64
2018-10-18T00:20:38.933Z,101354.06
2018-10-18T00:23:08.411Z,101350.77
2018-10-18T00:25:38.326Z,101347.55
2018-10-18T00:28:07.632Z,101344.89
2018-10-18T00:30:37.095Z,101348.88
2018-10-18T00:33:07.447Z,101343.42
2018-10-18T00:35:36.955Z,101346.14
2018-10-18T00:38:06.886Z,101344.42
2018-10-18T00:40:36.371Z,101336.90
2018-10-18T00:43:05.916Z,101337.89
2018-10-18T00:45:35.390Z,101339.52
2018-10-18T00:48:05.368Z,101339.44
2018-10-18T00:50:35.007Z,101339.97
2018-10-18T00:53:04.930Z,101337.05
2018-10-18T00:55:34.422Z,101338.64
2018-10-18T00:58:03.926Z,101346.50
2018-10-18T01:00:33.176Z,101342.08
2018-10-18T01:03:02.528Z,101345.30
2018-10-18T01:05:32.222Z,101342.63
2018-10-18T01:08:01.999Z,101348.05
2018-10-18T01:10:31.495Z,101351.05
2018-10-18T01:13:00.738Z,101356.94
2018-10-18T01:15:30.365Z,101354.36
2018-10-18T01:17:59.675Z,101358.27
2018-10-18T01:20:29.143Z,101351.19
2018-10-18T01:22:58.537Z,101358.05
2018-10-18T01:25:28.535Z,101361.14
2018-10-18T01:27:57.981Z,101359.25
2018-10-18T01:30:27.924Z,101355.69
2018-10-18T01:32:57.391Z,101357.66
2018-10-18T01:35:27.702Z,101364.16
2018-10-18T01:37:57.504Z,101365.78
2018-10-18T01:40:27.388Z,101369.91
2018-10-18T01:42:56.651Z,101364.80
2018-10-18T01:45:26.266Z,101368.27
2018-10-18T01:47:55.564Z,101369.17
2018-10-18T01:50:25.183Z,101368.95
2018-10-18T01:52:54.525Z,101368.39
2018-10-18T01:55:24.000Z,101367.45
2018-10-18T01:57:53.520Z,101362.54
2018-10-18T02:00:23.426Z,101370.56
2018-10-18T02:02:53.142Z,101372.88
2018-10-18T02:05:23.214Z,101322.48
2018-10-18T02:07:53.147Z,101370.09
2018-10-18T02:10:22.865Z,101374.64
2018-10-18T02:12:52.365Z,101379.89
2018-10-18T02:15:22.036Z,101376.73
2018-10-18T02:17:52.859Z,101375.84
2018-10-18T02:20:22.586Z,101376.55
2018-10-18T02:22:52.463Z,101381.83
2018-10-18T02:25:22.304Z,101380.97
2018-10-18T02:27:51.863Z,101380.75
2018-10-18T02:30:21.583Z,101377.17
2018-10-18T02:32:51.486Z,101378.06
2018-10-18T02:35:21.195Z,101378.18
2018-10-18T02:37:50.701Z,101377.49
2018-10-18T02:40:20.219Z,101373.53
2018-10-18T02:42:50.164Z,101374.42
2018-10-18T02:45:19.588Z,101379.86
2018-10-18T02:47:50.896Z,101376.13
2018-10-18T02:50:21.131Z,101380.37
2018-10-18T02:52:51.865Z,101379.44
2018-10-18T02:55:23.282Z,101377.33
2018-10-18T02:57:53.269Z,101382.48
2018-10-18T03:00:25.382Z,101382.83
2018-10-18T03:02:56.009Z,101381.70
2018-10-18T03:05:26.904Z,101387.05
2018-10-18T03:07:57.700Z,101393.85
2018-10-18T03:10:28.734Z,101393.08
2018-10-18T03:12:59.771Z,101388.95
2018-10-18T03:15:30.292Z,101396.59
2018-10-18T03:18:00.540Z,101397.33
2018-10-18T03:20:31.104Z,101398.88
2018-10-18T03:23:01.583Z,101403.95
2018-10-18T03:25:31.757Z,101407.73
2018-10-18T03:28:02.961Z,101414.20
2018-10-18T03:30:33.192Z,101413.30
2018-10-18T03:33:03.803Z,101419.66
2018-10-18T03:35:34.902Z,101422.48
2018-10-18T03:38:05.373Z,101422.41
2018-10-18T03:40:34.939Z,101422.33
2018-10-18T03:43:05.512Z,101428.61
2018-10-18T03:45:35.733Z,101425.94
2018-10-18T03:48:05.763Z,101429.73
2018-10-18T03:50:35.978Z,101430.84
2018-10-18T03:53:05.737Z,101433.52
2018-10-18T03:55:36.112Z,101436.17
2018-10-18T03:58:06.027Z,101434.20
2018-10-18T04:00:36.450Z,101437.94
2018-10-18T04:03:07.749Z,101434.28
2018-10-18T04:05:38.397Z,101430.84
2018-10-18T04:08:10.098Z,101443.53
2018-10-18T04:10:39.827Z,101441.38
2018-10-18T04:13:10.106Z,101442.70
2018-10-18T04:15:42.513Z,101444.52
2018-10-18T04:18:13.609Z,101443.70
2018-10-18T04:20:43.873Z,101437.08
2018-10-18T04:23:18.653Z,101442.70
2018-10-18T04:25:48.308Z,101441.08
2018-10-18T04:28:18.643Z,101437.03
2018-10-18T04:30:50.184Z,101440.47
2018-10-18T04:33:20.922Z,101437.37
2018-10-18T04:35:51.502Z,101442.92
2018-10-18T04:38:21.808Z,101439.74
2018-10-18T04:40:51.334Z,101433.94
2018-10-18T04:43:20.838Z,101443.83
2018-10-18T04:45:50.509Z,101451.31
2018-10-18T04:48:20.406Z,101447.35
2018-10-18T04:50:49.770Z,101456.04
2018-10-18T04:53:19.270Z,101455.95
2018-10-18T04:55:49.206Z,101458.41
2018-10-18T04:58:18.660Z,101463.61
2018-10-18T05:00:53.923Z,101463.17
2018-10-18T05:03:23.996Z,101459.86
2018-10-18T05:05:55.395Z,101457.48
2018-10-18T05:08:25.942Z,101464.07
2018-10-18T05:10:56.258Z,101458.60
2018-10-18T05:13:25.743Z,101466.60
2018-10-18T05:15:55.462Z,101462.60
2018-10-18T05:18:25.270Z,101463.84
2018-10-18T05:20:54.731Z,101460.48
2018-10-18T05:23:26.242Z,101473.14
2018-10-18T05:25:56.326Z,101466.31
2018-10-18T05:28:26.015Z,101470.03
2018-10-18T05:30:55.559Z,101470.63
2018-10-18T05:33:24.926Z,101471.06
2018-10-18T05:35:54.497Z,101475.28
2018-10-18T05:38:23.743Z,101472.16
2018-10-18T05:40:54.187Z,101479.38
2018-10-18T05:43:25.224Z,101484.05
2018-10-18T05:45:55.727Z,101491.82
2018-10-18T05:48:25.349Z,101487.75
2018-10-18T05:50:54.927Z,101495.84
2018-10-18T05:53:24.445Z,101492.98
2018-10-18T05:55:54.310Z,101505.09
2018-10-18T05:58:23.793Z,101502.97
2018-10-18T06:00:53.340Z,101504.89
2018-10-18T06:03:23.643Z,101506.41
2018-10-18T06:05:53.125Z,101505.16
2018-10-18T06:08:22.618Z,101515.68
2018-10-18T06:11:03.042Z,101516.19
2018-10-18T06:13:32.358Z,101526.74
2018-10-18T06:16:02.335Z,101525.62
2018-10-18T06:18:31.717Z,101523.39
2018-10-18T06:21:04.934Z,101519.17
2018-10-18T06:23:35.044Z,101528.29
2018-10-18T06:26:04.526Z,101527.66
2018-10-18T06:28:34.025Z,101535.53
2018-10-18T06:31:03.672Z,101543.84
2018-10-18T06:33:33.627Z,101541.31
2018-10-18T06:36:03.142Z,101546.44
2018-10-18T06:38:32.678Z,101537.23
2018-10-18T06:41:02.308Z,101546.85
2018-10-18T06:43:38.608Z,101534.96
2018-10-18T06:46:10.855Z,101540.92
2018-10-18T06:48:41.535Z,101535.02
2018-10-18T06:51:11.467Z,101540.10
2018-10-18T06:53:42.101Z,101544.63
2018-10-18T06:56:11.487Z,101539.64
2018-10-18T06:58:41.266Z,101545.33
2018-10-18T07:01:10.709Z,101535.64
2018-10-18T07:03:40.185Z,101536.41
2018-10-18T07:06:09.747Z,101540.09
2018-10-18T07:08:39.185Z,101544.56
2018-10-18T07:11:09.803Z,101537.18
2018-10-18T07:13:39.252Z,101538.11
2018-10-18T07:16:08.755Z,101536.06
2018-10-18T07:18:38.242Z,101543.77
2018-10-18T07:21:07.816Z,101547.33
2018-10-18T07:23:37.667Z,101542.06
2018-10-18T07:26:07.211Z,101551.13
2018-10-18T07:28:36.667Z,101559.34
2018-10-18T07:31:06.168Z,101554.67
2018-10-18T07:33:35.507Z,101553.67
2018-10-18T07:36:05.050Z,101562.01
2018-10-18T07:38:34.518Z,101564.11
2018-10-18T07:41:04.070Z,101563.27
2018-10-18T07:43:33.749Z,101569.47
2018-10-18T07:46:03.479Z,101572.94
2018-10-18T07:48:32.939Z,101570.36
2018-10-18T07:51:02.889Z,101573.03
2018-10-18T07:53:32.241Z,101569.77
2018-10-18T07:56:01.640Z,101570.29
2018-10-18T07:58:31.152Z,101575.89
2018-10-18T08:01:01.228Z,101579.34
2018-10-18T08:03:30.566Z,101573.89
2018-10-18T08:06:00.078Z,101578.14
2018-10-18T08:08:29.743Z,101581.88
2018-10-18T08:10:59.154Z,101580.37
2018-10-18T08:13:28.619Z,101581.70
2018-10-18T08:15:58.111Z,101582.11
2018-10-18T08:18:28.495Z,101581.67
2018-10-18T08:20:57.770Z,101586.70
2018-10-18T08:23:27.633Z,101584.92
2018-10-18T08:25:57.138Z,101584.95
2018-10-18T08:28:26.566Z,101581.08
2018-10-18T08:30:56.494Z,101575.54
2018-10-18T08:33:26.062Z,101577.91
2018-10-18T08:35:55.976Z,101568.60
2018-10-18T08:38:25.486Z,101573.05
2018-10-18T08:40:55.420Z,101572.50
2018-10-18T08:43:24.910Z,101574.06
2018-10-18T08:45:54.733Z,101576.78
2018-10-18T08:48:23.969Z,101575.28
2018-10-18T08:50:53.247Z,101572.07
2018-10-18T08:53:22.784Z,101573.13
2018-10-18T08:55:52.614Z,101578.34
2018-10-18T08:58:22.159Z,101574.47
2018-10-18T09:00:51.644Z,101573.20
2018-10-18T09:03:20.941Z,101579.56
2018-10-18T09:05:50.427Z,101585.97
2018-10-18T09:08:20.174Z,101586.92
2018-10-18T09:10:49.635Z,101588.91
2018-10-18T09:13:19.403Z,101592.00
2018-10-18T09:15:48.958Z,101588.33
2018-10-18T09:18:18.641Z,101587.98
2018-10-18T09:20:48.274Z,101592.73
2018-10-18T09:23:17.807Z,101594.12
2018-10-18T09:25:47.492Z,101593.46
2018-10-18T09:28:17.027Z,101594.45
2018-10-18T09:30:46.731Z,101598.34
2018-10-18T09:33:16.452Z,101594.27
2018-10-18T09:35:45.929Z,101608.06
2018-10-18T09:38:15.467Z,101607.38
2018-10-18T09:40:44.730Z,101606.50
2018-10-18T09:43:14.337Z,101605.50
2018-10-18T09:45:43.956Z,101606.77
2018-10-18T09:48:13.499Z,101603.70
2018-10-18T09:50:42.974Z,101603.24
2018-10-18T09:53:12.461Z,101604.65
2018-10-18T09:55:42.042Z,101596.42
2018-10-18T09:58:12.130Z,101603.63
2018-10-18T10:00:46.799Z,101615.87
2018-10-18T10:03:17.926Z,101610.52
2018-10-18T10:05:47.388Z,101611.66
2018-10-18T10:08:16.927Z,101611.26
2018-10-18T10:10:46.596Z,101614.21
2018-10-18T10:13:16.201Z,101609.84
2018-10-18T10:15:45.600Z,101604.48
2018-10-18T10:18:15.763Z,101607.90
2018-10-18T10:20:45.020Z,101602.62
2018-10-18T10:23:15.332Z,101608.97
2018-10-18T10:25:44.963Z,101609.06
2018-10-18T10:28:14.387Z,101606.77
2018-10-18T10:30:43.859Z,101609.53
2018-10-18T10:33:13.429Z,101606.37
2018-10-18T10:35:42.913Z,101609.52
2018-10-18T10:38:12.378Z,101603.45
2018-10-18T10:40:41.875Z,101600.42
2018-10-18T10:43:11.563Z,101600.44
2018-10-18T10:45:41.154Z,101605.43
2018-10-18T10:48:10.888Z,101608.45
2018-10-18T10:50:40.910Z,101606.67
2018-10-18T10:53:10.451Z,101607.52
2018-10-18T10:55:40.118Z,101604.31
2018-10-18T10:58:09.680Z,101604.12
2018-10-18T11:01:20.158Z,101601.70
2018-10-18T11:03:51.251Z,101605.18
2018-10-18T11:06:20.946Z,101605.98
2018-10-18T11:08:50.530Z,101602.39
2018-10-18T11:11:22.173Z,101602.65
2018-10-18T11:13:51.993Z,101598.42
2018-10-18T11:16:21.430Z,101594.73
2018-10-18T11:18:50.934Z,101601.47
2018-10-18T11:21:21.119Z,101599.94
2018-10-18T11:23:50.562Z,101597.98
2018-10-18T11:26:20.287Z,101591.05
2018-10-18T11:28:49.398Z,101591.09
2018-10-18T11:31:18.870Z,101591.23
2018-10-18T11:33:48.410Z,101585.19
2018-10-18T11:36:17.758Z,101589.87
2018-10-18T11:38:47.182Z,101583.39
2018-10-18T11:41:16.683Z,101591.92
2018-10-18T11:43:46.680Z,101579.00
2018-10-18T11:46:16.106Z,101582.57
2018-10-18T11:48:45.606Z,101577.70
2018-10-18T11:51:15.364Z,101573.95
2018-10-18T11:53:44.851Z,101573.83
2018-10-18T11:56:14.413Z,101573.52
2018-10-18T11:58:44.037Z,101571.70
2018-10-18T12:01:14.273Z,101574.09
2018-10-18T12:03:43.694Z,101568.95
2018-10-18T12:06:13.848Z,101569.92
2018-10-18T12:08:43.091Z,101568.38
2018-10-18T12:11:12.954Z,101566.70
2018-10-18T12:13:42.518Z,101571.75
2018-10-18T12:16:12.537Z,101576.60
2018-10-18T12:18:41.742Z,101575.11
2018-10-18T12:21:11.426Z,101579.62
2018-10-18T12:23:40.957Z,101576.58
2018-10-18T12:26:10.495Z,101574.72
2018-10-18T12:28:39.947Z,101567.88
2018-10-18T12:31:09.472Z,101572.68
2018-10-18T12:33:39.178Z,101573.97
2018-10-18T12:36:08.687Z,101575.52
2018-10-18T12:38:38.771Z,101572.34
2018-10-18T12:41:08.641Z,101574.12
2018-10-18T12:43:38.042Z,101571.59
2018-10-18T12:46:07.914Z,101571.27
2018-10-18T12:48:37.504Z,101566.23
2018-10-18T12:51:06.968Z,101568.09
2018-10-18T12:53:36.795Z,101562.65
2018-10-18T12:56:06.963Z,101560.48
2018-10-18T12:58:37.111Z,101558.95
2018-10-18T13:01:06.940Z,101557.11
2018-10-18T13:03:36.290Z,101553.59
2018-10-18T13:06:05.850Z,101553.09
2018-10-18T13:08:35.300Z,101558.28
2018-10-18T13:11:05.142Z,101553.91
2018-10-18T13:13:34.568Z,101544.61
2018-10-18T13:16:04.142Z,101543.80
2018-10-18T13:18:33.534Z,101544.61
2018-10-18T13:21:03.044Z,101543.05
2018-10-18T13:23:32.333Z,101536.50
2018-10-18T13:26:01.933Z,101539.06
2018-10-18T13:28:31.347Z,101534.58
2018-10-18T13:31:01.058Z,101542.73
2018-10-18T13:33:30.565Z,101547.20
2018-10-18T13:36:00.067Z,101542.34
2018-10-18T13:38:29.593Z,101539.67
2018-10-18T13:40:58.909Z,101543.02
2018-10-18T13:43:28.216Z,101545.50
2018-10-18T13:45:57.680Z,101552.42
2018-10-18T13:48:27.162Z,101552.58
2018-10-18T13:50:56.549Z,101559.53
2018-10-18T13:53:25.755Z,101555.34
2018-10-18T13:55:55.502Z,101550.11
2018-10-18T13:58:25.167Z,101552.63
2018-10-18T14:00:54.398Z,101549.10
2018-10-18T14:03:23.823Z,101548.77
2018-10-18T14:05:53.306Z,101548.59
2018-10-18T14:08:23.047Z,101545.41
2018-10-18T14:10:52.740Z,101545.34
2018-10-18T14:13:22.875Z,101545.22
2018-10-18T14:15:52.366Z,101544.86
2018-10-18T14:18:22.915Z,101538.65
2018-10-18T14:20:52.393Z,101538.98
2018-10-18T14:23:22.461Z,101548.45
2018-10-18T14:25:52.619Z,101543.83
2018-10-18T14:28:22.206Z,101544.29
2018-10-18T14:30:51.435Z,101541.95
2018-10-18T14:33:20.964Z,101536.06
2018-10-18T14:35:50.875Z,101537.75
2018-10-18T14:38:20.649Z,101543.27
2018-10-18T14:40:50.054Z,101541.75
2018-10-18T14:43:19.582Z,101540.25
2018-10-18T14:45:49.070Z,101538.55
2018-10-18T14:48:19.299Z,101540.09
2018-10-18T14:50:48.802Z,101545.59
2018-10-18T14:53:18.098Z,101543.73
2018-10-18T14:55:47.474Z,101542.52
2018-10-18T14:58:17.006Z,101537.90
2018-10-18T15:00:46.507Z,101532.55
2018-10-18T15:03:16.027Z,101541.73
2018-10-18T15:05:45.511Z,101540.73
2018-10-18T15:08:15.955Z,101535.42
2018-10-18T15:10:45.361Z,101541.41
2018-10-18T15:13:14.886Z,101544.27
2018-10-18T15:15:44.375Z,101546.56
2018-10-18T15:18:13.899Z,101544.91
2018-10-18T15:20:43.607Z,101548.42
2018-10-18T15:23:13.137Z,101548.27
2018-10-18T15:25:42.547Z,101539.91
2018-10-18T15:28:11.705Z,101533.55
2018-10-18T15:30:43.766Z,101531.31
2018-10-18T15:33:16.270Z,101532.18
2018-10-18T15:35:46.466Z,101531.51
2018-10-18T15:38:17.371Z,101529.99
2018-10-18T15:40:48.803Z,101534.02
2018-10-18T15:43:19.883Z,101534.32
2018-10-18T15:45:50.359Z,101529.60
2018-10-18T15:48:21.620Z,101530.42
2018-10-18T15:50:52.383Z,101534.63
2018-10-18T15:53:22.617Z,101532.92
2018-10-18T15:55:53.093Z,101532.10
2018-10-18T15:58:24.325Z,101534.11
2018-10-18T16:00:55.525Z,101530.70
2018-10-18T16:03:27.205Z,101534.20
2018-10-18T16:05:56.606Z,101537.40
2018-10-18T16:08:26.128Z,101540.08
2018-10-18T16:10:56.092Z,101539.04
2018-10-18T16:13:25.880Z,101540.75
2018-10-18T16:15:55.235Z,101545.25
2018-10-18T16:18:24.745Z,101550.46
2018-10-18T16:20:54.119Z,101552.95
2018-10-18T16:23:23.531Z,101553.51
2018-10-18T16:25:53.061Z,101553.70
2018-10-18T16:28:22.579Z,101554.03
2018-10-18T16:30:52.049Z,101565.80
2018-10-18T16:33:21.874Z,101565.97
2018-10-18T16:35:51.671Z,101561.43
2018-10-18T16:38:21.280Z,101562.10
2018-10-18T16:40:50.708Z,101563.97
2018-10-18T16:43:20.388Z,101562.20
2018-10-18T16:45:50.103Z,101562.41
2018-10-18T16:48:19.672Z,101566.13
2018-10-18T16:50:49.165Z,101565.94
2018-10-18T16:53:18.579Z,101572.02
2018-10-18T16:55:48.174Z,101572.25
2018-10-18T16:58:17.507Z,101572.36
2018-10-18T17:00:47.307Z,101576.28
2018-10-18T17:03:17.195Z,101578.18
2018-10-18T17:05:47.561Z,101583.49
2018-10-18T17:08:17.744Z,101580.27
2018-10-18T17:10:47.378Z,101578.42
2018-10-18T17:13:17.067Z,101589.52
2018-10-18T17:15:46.403Z,101583.70
2018-10-18T17:18:15.983Z,101582.77
2018-10-18T17:20:45.551Z,101592.93
2018-10-18T17:23:14.958Z,101587.35
2018-10-18T17:25:44.444Z,101591.05
2018-10-18T17:28:15.327Z,101595.63
2018-10-18T17:30:45.486Z,101595.42
2018-10-18T17:33:14.989Z,101598.62
2018-10-18T17:35:44.519Z,101603.22
2018-10-18T17:38:14.092Z,101602.66
2018-10-18T17:40:43.867Z,101595.77
2018-10-18T17:43:13.078Z,101602.45
2018-10-18T17:45:42.691Z,101602.61
2018-10-18T17:48:13.194Z,101607.15
2018-10-18T17:50:42.631Z,101611.31
2018-10-18T17:53:18.827Z,101612.97
2018-10-18T17:55:49.331Z,101611.95
2018-10-18T17:58:18.866Z,101610.73
2018-10-18T18:00:48.050Z,101609.82
2018-10-18T18:03:17.328Z,101609.89
2018-10-18T18:05:47.615Z,101615.78
2018-10-18T18:08:17.328Z,101606.19
2018-10-18T18:10:46.782Z,101616.86
2018-10-18T18:13:16.300Z,101615.05
2018-10-18T18:15:46.232Z,101621.08
2018-10-18T18:18:15.727Z,101621.01
2018-10-18T18:20:45.419Z,101613.44
2018-10-18T18:23:14.959Z,101619.33
2018-10-18T18:25:45.815Z,101619.23
2018-10-18T18:28:15.162Z,101616.16
2018-10-18T18:30:45.683Z,101617.84
2018-10-18T18:33:16.736Z,101623.81
2018-10-18T18:35:46.749Z,101625.41
2018-10-18T18:38:16.266Z,101629.59
2018-10-18T18:40:48.190Z,101629.73
2018-10-18T18:43:19.401Z,101637.58
2018-10-18T18:45:50.895Z,101641.70
2018-10-18T18:48:22.182Z,101641.23
2018-10-18T18:50:51.560Z,101650.78
2018-10-18T18:53:22.814Z,101647.61
2018-10-18T18:55:54.425Z,101645.70
2018-10-18T18:58:24.256Z,101650.91
2018-10-18T19:00:54.454Z,101654.02
2018-10-18T19:03:24.258Z,101656.30
2018-10-18T19:05:53.946Z,101656.83
2018-10-18T19:08:23.444Z,101650.77
2018-10-18T19:10:53.164Z,101597.71
2018-10-18T19:13:22.727Z,101662.48
2018-10-18T19:15:52.398Z,101663.11
2018-10-18T19:18:22.464Z,101669.42
2018-10-18T19:20:52.040Z,101672.77
2018-10-18T19:23:22.063Z,101672.19
2018-10-18T19:25:51.462Z,101676.34
2018-10-18T19:28:20.982Z,101678.82
2018-10-18T19:30:50.856Z,101683.24
2018-10-18T19:33:20.997Z,101686.81
2018-10-18T19:35:50.578Z,101682.82
2018-10-18T19:38:20.262Z,101685.20
2018-10-18T19:40:51.963Z,101689.12
2018-10-18T19:43:23.304Z,101687.75
2018-10-18T19:45:53.085Z,101691.09
2018-10-18T19:48:24.881Z,101694.23
2018-10-18T19:50:54.701Z,101694.02
2018-10-18T19:53:24.602Z,101698.66
2018-10-18T19:55:55.634Z,101692.34
2018-10-18T19:58:28.573Z,101691.39
2018-10-18T20:00:59.982Z,101693.69
2018-10-18T20:03:31.456Z,101700.81
2018-10-18T20:06:01.314Z,101705.54
2018-10-18T20:08:31.032Z,101709.52
2018-10-18T20:11:00.970Z,101708.92
2018-10-18T20:13:30.413Z,101707.84
2018-10-18T20:16:00.355Z,101708.94
2018-10-18T20:18:29.865Z,101714.73
2018-10-18T20:20:59.595Z,101719.70
2018-10-18T20:23:31.751Z,101722.27
2018-10-18T20:26:01.638Z,101726.62
2018-10-18T20:28:31.044Z,101726.86
2018-10-18T20:31:03.032Z,101731.19
2018-10-18T20:33:35.052Z,101729.50
2018-10-18T20:36:07.038Z,101726.61
2018-10-18T20:38:38.815Z,101728.33
2018-10-18T20:41:10.474Z,101732.29
2018-10-18T20:43:42.942Z,101726.25
2018-10-18T20:46:14.661Z,101724.58
2018-10-18T20:48:47.303Z,101729.52
2018-10-18T20:51:19.154Z,101727.70
2018-10-18T20:53:50.626Z,101729.64
2018-10-18T20:56:22.133Z,101729.29
2018-10-18T20:58:53.847Z,101734.47
2018-10-18T21:01:24.391Z,101730.84
2018-10-18T21:03:55.934Z,101725.41
2018-10-18T21:06:27.550Z,101727.33
2018-10-18T21:08:59.407Z,101735.30
2018-10-18T21:11:31.636Z,101732.50
2018-10-18T21:14:03.067Z,101733.00
2018-10-18T21:16:34.413Z,101729.87
2018-10-18T21:19:04.265Z,101733.00
2018-10-18T21:21:34.845Z,101733.00
2018-10-18T21:24:06.950Z,101730.78
2018-10-18T21:26:38.795Z,101731.39
2018-10-18T21:29:11.237Z,101728.98
2018-10-18T21:31:42.787Z,101732.47
2018-10-18T21:34:14.755Z,101726.30
2018-10-18T21:36:45.907Z,101732.97
2018-10-18T21:39:26.319Z,101727.63
2018-10-18T21:41:55.763Z,101721.49
2018-10-18T21:44:27.834Z,101723.64
2018-10-18T21:46:57.913Z,101732.20
2018-10-18T21:49:28.126Z,101727.11
2018-10-18T21:51:57.921Z,101727.61
2018-10-18T21:54:27.867Z,101730.20
2018-10-18T21:56:57.897Z,101729.85
2018-10-18T21:59:27.258Z,101723.62
2018-10-18T22:01:56.598Z,101731.70
2018-10-18T22:04:28.264Z,101729.61
2018-10-18T22:07:00.543Z,101726.45
2018-10-18T22:09:32.625Z,101725.07
2018-10-18T22:12:04.450Z,101727.62
2018-10-18T22:14:35.856Z,101723.69
2018-10-18T22:17:08.114Z,101720.63
2018-10-18T22:19:40.055Z,101726.46
2018-10-18T22:22:11.416Z,101721.77
2018-10-18T22:24:43.344Z,101718.43
2018-10-18T22:27:15.416Z,101712.41
2018-10-18T22:29:47.417Z,101718.61
2018-10-18T22:32:20.073Z,101711.63
2018-10-18T22:34:52.057Z,101715.53
2018-10-18T22:37:24.916Z,101705.88
2018-10-18T22:39:57.018Z,101703.84
2018-10-18T22:42:28.666Z,101712.59
2018-10-18T22:45:00.129Z,101706.66
2018-10-18T22:47:32.042Z,101705.08
2018-10-18T22:50:03.783Z,101702.45
2018-10-18T22:52:35.685Z,101702.98
2018-10-18T22:55:07.306Z,101709.77
2018-10-18T22:57:38.019Z,101711.89
2018-10-18T23:00:08.279Z,101708.17
2018-10-18T23:02:40.153Z,101711.77
2018-10-18T23:05:12.023Z,101712.86
2018-10-18T23:07:45.170Z,101714.38
2018-10-18T23:10:17.427Z,101711.78
2018-10-18T23:12:48.979Z,101714.53
2018-10-18T23:15:20.976Z,101711.00
2018-10-18T23:17:52.330Z,101718.02
2018-10-18T23:20:21.771Z,101713.48
2018-10-18T23:22:51.306Z,101714.42
2018-10-18T23:25:21.457Z,101714.25
2018-10-18T23:27:51.002Z,101710.11
2018-10-18T23:30:20.707Z,101711.23
2018-10-18T23:32:50.842Z,101705.08
2018-10-18T23:35:20.317Z,101708.77
2018-10-18T23:37:49.623Z,101708.32
2018-10-18T23:40:19.098Z,101699.59
2018-10-18T23:42:48.401Z,101709.53
2018-10-18T23:45:20.462Z,101716.01
2018-10-18T23:47:51.311Z,101714.55
2018-10-18T23:50:21.473Z,101707.69
2018-10-18T23:52:50.723Z,101705.69
2018-10-18T23:55:20.258Z,101708.41
2018-10-18T23:57:49.477Z,101705.23
